sensor_id;sensor_type;location;lat;lon;timestamp;pressure;altitude;pressure_sealevel;temperature;humidity
59190;BME280;50749;51.636;4.948;2022-09-28T00:01:26;99653.84;;;18.21;63.43
59190;BME280;50749;51.636;4.948;2022-09-28T00:03:54;99655.81;;;18.20;63.04
59190;BME280;50749;51.636;4.948;2022-09-28T00:06:23;99649.09;;;18.22;63.19
59190;BME280;50749;51.636;4.948;2022-09-28T00:08:50;99658.56;;;18.20;63.76
59190;BME280;50749;51.636;4.948;2022-09-28T00:11:19;99645.94;;;18.19;63.26
59190;BME280;50749;51.636;4.948;2022-09-28T00:13:51;99651.47;;;18.19;63.57
59190;BME280;50749;51.636;4.948;2022-09-28T00:16:20;99647.91;;;18.19;63.50
59190;BME280;50749;51.636;4.948;2022-09-28T00:18:49;99639.63;;;18.19;63.58
59190;BME280;50749;51.636;4.948;2022-09-28T00:21:25;99636.03;;;18.18;63.39
59190;BME280;50749;51.636;4.948;2022-09-28T00:23:53;99642.38;;;18.19;63.69
59190;BME280;50749;51.636;4.948;2022-09-28T00:26:53;99635.25;;;18.18;63.20
59190;BME280;50749;51.636;4.948;2022-09-28T00:29:35;99641.19;;;18.16;63.17
59190;BME280;50749;51.636;4.948;2022-09-28T00:32:19;99642.78;;;18.17;63.39
59190;BME280;50749;51.636;4.948;2022-09-28T00:34:49;99642.78;;;18.17;63.50
59190;BME280;50749;51.636;4.948;2022-09-28T00:37:16;99639.56;;;18.15;63.22
59190;BME280;50749;51.636;4.948;2022-09-28T00:39:44;99642.34;;;18.15;63.58
59190;BME280;50749;51.636;4.948;2022-09-28T00:42:22;99638.00;;;18.14;63.42
59190;BME280;50749;51.636;4.948;2022-09-28T00:44:54;99644.72;;;18.13;63.15
59190;BME280;50749;51.636;4.948;2022-09-28T00:52:42;99636.03;;;18.11;63.33
59190;BME280;50749;51.636;4.948;2022-09-28T00:55:13;99638.78;;;18.11;62.88
59190;BME280;50749;51.636;4.948;2022-09-28T00:57:44;99643.16;;;18.12;63.71
59190;BME280;50749;51.636;4.948;2022-09-28T01:00:17;99634.41;;;18.10;63.66
59190;BME280;50749;51.636;4.948;2022-09-28T01:02:46;99638.00;;;18.11;63.63
59190;BME280;50749;51.636;4.948;2022-09-28T01:05:12;99639.94;;;18.10;63.49
59190;BME280;50749;51.636;4.948;2022-09-28T01:07:40;99648.25;;;18.10;63.34
59190;BME280;50749;51.636;4.948;2022-09-28T01:10:07;99648.25;;;18.10;63.46
59190;BME280;50749;51.636;4.948;2022-09-28T01:12:33;99653.00;;;18.10;63.30
59190;BME280;50749;51.636;4.948;2022-09-28T01:15:03;99642.31;;;18.08;63.20
59190;BME280;50749;51.636;4.948;2022-09-28T01:28:46;99668.78;;;18.06;63.30
59190;BME280;50749;51.636;4.948;2022-09-28T01:31:15;99656.91;;;18.05;63.02
59190;BME280;50749;51.636;4.948;2022-09-28T01:33:44;99650.59;;;18.05;63.35
59190;BME280;50749;51.636;4.948;2022-09-28T01:36:26;99660.88;;;18.04;62.97
59190;BME280;50749;51.636;4.948;2022-09-28T01:38:58;99671.94;;;18.04;63.14
59190;BME280;50749;51.636;4.948;2022-09-28T01:41:28;99663.22;;;18.02;63.01
59190;BME280;50749;51.636;4.948;2022-09-28T01:43:56;99664.03;;;18.03;62.96
59190;BME280;50749;51.636;4.948;2022-09-28T01:46:39;99652.16;;;18.02;63.02
59190;BME280;50749;51.636;4.948;2022-09-28T01:49:21;99656.91;;;18.01;62.74
59190;BME280;50749;51.636;4.948;2022-09-28T01:52:07;99656.13;;;18.01;63.01
59190;BME280;50749;51.636;4.948;2022-09-28T01:54:59;99651.75;;;18.00;62.55
59190;BME280;50749;51.636;4.948;2022-09-28T01:57:24;99647.41;;;17.99;62.63
59190;BME280;50749;51.636;4.948;2022-09-28T02:00:06;99648.59;;;17.98;62.67
59190;BME280;50749;51.636;4.948;2022-09-28T02:02:47;99654.13;;;17.98;62.71
59190;BME280;50749;51.636;4.948;2022-09-28T02:05:17;99644.22;;;17.97;62.78
59190;BME280;50749;51.636;4.948;2022-09-28T02:08:01;99645.81;;;17.98;62.63
59190;BME280;50749;51.636;4.948;2022-09-28T02:10:37;99643.44;;;17.96;62.61
59190;BME280;50749;51.636;4.948;2022-09-28T02:13:23;99644.22;;;17.97;62.44
59190;BME280;50749;51.636;4.948;2022-09-28T02:16:02;99633.97;;;17.97;62.45
59190;BME280;50749;51.636;4.948;2022-09-28T02:18:30;99633.16;;;17.97;62.75
59190;BME280;50749;51.636;4.948;2022-09-28T02:21:06;99637.91;;;17.96;62.83
59190;BME280;50749;51.636;4.948;2022-09-28T02:23:36;99635.53;;;17.95;62.46
59190;BME280;50749;51.636;4.948;2022-09-28T02:26:08;99642.28;;;17.97;62.66
59190;BME280;50749;51.636;4.948;2022-09-28T02:28:36;99638.31;;;17.95;62.42
59190;BME280;50749;51.636;4.948;2022-09-28T02:31:03;99641.47;;;17.97;62.68
59190;BME280;50749;51.636;4.948;2022-09-28T02:33:35;99641.06;;;17.95;62.71
59190;BME280;50749;51.636;4.948;2022-09-28T02:36:02;99641.84;;;17.95;62.54
59190;BME280;50749;51.636;4.948;2022-09-28T02:38:30;99640.66;;;17.93;62.79
59190;BME280;50749;51.636;4.948;2022-09-28T02:41:25;99647.78;;;17.94;62.32
59190;BME280;50749;51.636;4.948;2022-09-28T02:46:59;99642.66;;;17.92;62.19
59190;BME280;50749;51.636;4.948;2022-09-28T02:54:44;99644.59;;;17.92;62.66
59190;BME280;50749;51.636;4.948;2022-09-28T03:00:08;99663.94;;;17.92;62.50
59190;BME280;50749;51.636;4.948;2022-09-28T03:05:30;99656.03;;;17.90;62.69
59190;BME280;50749;51.636;4.948;2022-09-28T03:08:01;99661.56;;;17.90;62.45
59190;BME280;50749;51.636;4.948;2022-09-28T03:10:38;99667.09;;;17.90;62.33
59190;BME280;50749;51.636;4.948;2022-09-28T03:13:06;99661.56;;;17.90;62.50
59190;BME280;50749;51.636;4.948;2022-09-28T03:15:34;99663.56;;;17.90;62.40
59190;BME280;50749;51.636;4.948;2022-09-28T03:18:00;99659.63;;;17.91;62.46
59190;BME280;50749;51.636;4.948;2022-09-28T03:20:27;99657.25;;;17.89;62.08
59190;BME280;50749;51.636;4.948;2022-09-28T03:22:54;99657.25;;;17.89;62.26
59190;BME280;50749;51.636;4.948;2022-09-28T03:25:21;99657.25;;;17.89;62.36
59190;BME280;50749;51.636;4.948;2022-09-28T03:27:47;99665.53;;;17.89;62.22
59190;BME280;50749;51.636;4.948;2022-09-28T03:30:13;99666.31;;;17.90;62.38
59190;BME280;50749;51.636;4.948;2022-09-28T03:32:39;99665.53;;;17.89;62.44
59190;BME280;50749;51.636;4.948;2022-09-28T03:35:06;99667.50;;;17.89;62.08
59190;BME280;50749;51.636;4.948;2022-09-28T03:37:34;99675.81;;;17.89;62.18
59190;BME280;50749;51.636;4.948;2022-09-28T03:40:01;99675.81;;;17.89;62.08
59190;BME280;50749;51.636;4.948;2022-09-28T03:42:27;99672.22;;;17.88;62.11
59190;BME280;50749;51.636;4.948;2022-09-28T03:44:54;99668.31;;;17.89;61.80
59190;BME280;50749;51.636;4.948;2022-09-28T03:47:19;99672.22;;;17.88;61.98
59190;BME280;50749;51.636;4.948;2022-09-28T03:49:45;99667.50;;;17.89;61.81
59190;BME280;50749;51.636;4.948;2022-09-28T03:52:12;99662.38;;;17.87;62.11
59190;BME280;50749;51.636;4.948;2022-09-28T03:54:38;99670.28;;;17.89;62.19
59190;BME280;50749;51.636;4.948;2022-09-28T03:57:04;99675.00;;;17.88;61.98
59190;BME280;50749;51.636;4.948;2022-09-28T03:59:31;99665.91;;;17.88;61.94
59190;BME280;50749;51.636;4.948;2022-09-28T04:01:59;99667.09;;;17.87;62.16
59190;BME280;50749;51.636;4.948;2022-09-28T04:04:25;99663.94;;;17.88;61.89
59190;BME280;50749;51.636;4.948;2022-09-28T04:06:51;99661.56;;;17.87;61.88
59190;BME280;50749;51.636;4.948;2022-09-28T04:09:16;99671.81;;;17.86;61.92
59190;BME280;50749;51.636;4.948;2022-09-28T04:11:42;99667.09;;;17.87;61.72
59190;BME280;50749;51.636;4.948;2022-09-28T04:14:09;99664.31;;;17.87;61.85
59190;BME280;50749;51.636;4.948;2022-09-28T04:16:34;99653.25;;;17.87;62.12
59190;BME280;50749;51.636;4.948;2022-09-28T04:19:00;99657.97;;;17.86;61.77
59190;BME280;50749;51.636;4.948;2022-09-28T04:21:28;99672.63;;;17.87;61.57
59190;BME280;50749;51.636;4.948;2022-09-28T04:23:54;99671.00;;;17.86;61.54
59190;BME280;50749;51.636;4.948;2022-09-28T04:26:22;99675.38;;;17.87;61.83
59190;BME280;50749;51.636;4.948;2022-09-28T04:28:50;99666.28;;;17.86;61.48
59190;BME280;50749;51.636;4.948;2022-09-28T04:31:43;99658.34;;;17.85;61.50
59190;BME280;50749;51.636;4.948;2022-09-28T04:34:12;99659.16;;;17.85;61.69
59190;BME280;50749;51.636;4.948;2022-09-28T04:36:39;99661.13;;;17.85;61.90
59190;BME280;50749;51.636;4.948;2022-09-28T04:39:05;99657.56;;;17.84;61.63
59190;BME280;50749;51.636;4.948;2022-09-28T04:41:32;99656.75;;;17.83;61.71
59190;BME280;50749;51.636;4.948;2022-09-28T04:43:58;99665.88;;;17.84;61.64
59190;BME280;50749;51.636;4.948;2022-09-28T04:46:23;99667.81;;;17.83;61.75
59190;BME280;50749;51.636;4.948;2022-09-28T04:48:49;99674.94;;;17.85;61.31
59190;BME280;50749;51.636;4.948;2022-09-28T04:51:15;99666.25;;;17.82;61.32
59190;BME280;50749;51.636;4.948;2022-09-28T04:53:41;99671.00;;;17.82;61.50
59190;BME280;50749;51.636;4.948;2022-09-28T04:56:09;99679.69;;;17.84;61.55
59190;BME280;50749;51.636;4.948;2022-09-28T04:58:38;99669.41;;;17.85;61.38
59190;BME280;50749;51.636;4.948;2022-09-28T05:01:15;99663.88;;;17.85;61.69
59190;BME280;50749;51.636;4.948;2022-09-28T05:03:41;99660.34;;;17.84;61.63
59190;BME280;50749;51.636;4.948;2022-09-28T05:06:08;99673.78;;;17.86;61.78
59190;BME280;50749;51.636;4.948;2022-09-28T05:08:34;99663.50;;;17.86;61.99
59190;BME280;50749;51.636;4.948;2022-09-28T05:11:03;99666.28;;;17.86;61.83
59190;BME280;50749;51.636;4.948;2022-09-28T05:13:30;99666.28;;;17.86;61.63
59190;BME280;50749;51.636;4.948;2022-09-28T05:15:57;99672.63;;;17.87;61.99
59190;BME280;50749;51.636;4.948;2022-09-28T05:18:24;99685.28;;;17.88;61.65
59190;BME280;50749;51.636;4.948;2022-09-28T05:20:50;99680.91;;;17.87;61.63
59190;BME280;50749;51.636;4.948;2022-09-28T05:23:16;99680.91;;;17.87;61.31
59190;BME280;50749;51.636;4.948;2022-09-28T05:25:42;99684.84;;;17.86;61.58
59190;BME280;50749;51.636;4.948;2022-09-28T05:28:10;99675.38;;;17.87;61.57
59190;BME280;50749;51.636;4.948;2022-09-28T05:30:37;99675.72;;;17.85;61.29
59190;BME280;50749;51.636;4.948;2022-09-28T05:33:04;99678.88;;;17.83;61.78
59190;BME280;50749;51.636;4.948;2022-09-28T05:35:30;99683.25;;;17.85;61.66
59190;BME280;50749;51.636;4.948;2022-09-28T05:37:57;99682.06;;;17.86;61.69
59190;BME280;50749;51.636;4.948;2022-09-28T05:40:27;99675.72;;;17.85;61.71
59190;BME280;50749;51.636;4.948;2022-09-28T05:42:53;99681.25;;;17.85;61.62
59190;BME280;50749;51.636;4.948;2022-09-28T05:45:24;99675.38;;;17.87;61.76
59190;BME280;50749;51.636;4.948;2022-09-28T05:47:51;99676.97;;;17.88;61.23
59190;BME280;50749;51.636;4.948;2022-09-28T05:50:16;99671.84;;;17.90;61.50
59190;BME280;50749;51.636;4.948;2022-09-28T05:52:42;99675.00;;;17.92;61.40
59190;BME280;50749;51.636;4.948;2022-09-28T05:55:09;99677.41;;;17.93;61.44
59190;BME280;50749;51.636;4.948;2022-09-28T05:57:35;99679.38;;;17.93;60.21
59190;BME280;50749;51.636;4.948;2022-09-28T06:00:03;99679.78;;;17.95;61.38
59190;BME280;50749;51.636;4.948;2022-09-28T06:02:30;99682.13;;;17.93;60.36
59190;BME280;50749;51.636;4.948;2022-09-28T06:04:57;99693.59;;;17.95;60.95
59190;BME280;50749;51.636;4.948;2022-09-28T06:07:24;99688.06;;;17.95;61.20
59190;BME280;50749;51.636;4.948;2022-09-28T06:09:50;99689.28;;;17.94;60.82
59190;BME280;50749;51.636;4.948;2022-09-28T06:12:15;99696.78;;;17.97;61.07
59190;BME280;50749;51.636;4.948;2022-09-28T06:14:41;99684.16;;;17.99;60.94
59190;BME280;50749;51.636;4.948;2022-09-28T06:17:07;99688.53;;;18.00;61.27
59190;BME280;50749;51.636;4.948;2022-09-28T06:19:33;99687.72;;;18.00;60.92
59190;BME280;50749;51.636;4.948;2022-09-28T06:21:59;99694.84;;;18.01;60.72
59190;BME280;50749;51.636;4.948;2022-09-28T06:24:26;99693.63;;;18.02;60.74
59190;BME280;50749;51.636;4.948;2022-09-28T06:26:52;99693.63;;;18.02;60.81
59190;BME280;50749;51.636;4.948;2022-09-28T06:29:17;99699.16;;;18.02;61.07
59190;BME280;50749;51.636;4.948;2022-09-28T06:31:45;99694.03;;;18.00;60.76
59190;BME280;50749;51.636;4.948;2022-09-28T06:34:11;99696.00;;;18.00;61.08
59190;BME280;50749;51.636;4.948;2022-09-28T06:36:38;99689.69;;;17.99;60.60
59190;BME280;50749;51.636;4.948;2022-09-28T06:39:04;99697.19;;;17.99;61.16
59190;BME280;50749;51.636;4.948;2022-09-28T06:41:33;99696.38;;;17.98;60.84
59190;BME280;50749;51.636;4.948;2022-09-28T06:43:59;99695.22;;;17.99;60.72
59190;BME280;50749;51.636;4.948;2022-09-28T06:46:26;99693.63;;;17.98;60.93
59190;BME280;50749;51.636;4.948;2022-09-28T06:48:52;99699.53;;;17.97;60.89
59190;BME280;50749;51.636;4.948;2022-09-28T06:51:19;99706.66;;;17.98;60.71
59190;BME280;50749;51.636;4.948;2022-09-28T06:53:44;99698.38;;;17.98;60.84
59190;BME280;50749;51.636;4.948;2022-09-28T06:56:10;99705.88;;;17.97;60.87
59190;BME280;50749;51.636;4.948;2022-09-28T06:58:36;99712.97;;;17.95;61.27
59190;BME280;50749;51.636;4.948;2022-09-28T07:01:02;99705.06;;;17.97;61.21
59190;BME280;50749;51.636;4.948;2022-09-28T07:03:28;99709.81;;;17.96;61.00
59190;BME280;50749;51.636;4.948;2022-09-28T07:05:55;99717.72;;;17.98;60.82
59190;BME280;50749;51.636;4.948;2022-09-28T07:08:24;99718.88;;;17.97;60.49
59190;BME280;50749;51.636;4.948;2022-09-28T07:10:52;99727.19;;;17.97;60.78
59190;BME280;50749;51.636;4.948;2022-09-28T07:13:26;99716.13;;;17.97;60.62
59190;BME280;50749;51.636;4.948;2022-09-28T07:15:56;99723.63;;;17.96;61.00
59190;BME280;50749;51.636;4.948;2022-09-28T07:18:22;99721.25;;;17.95;60.54
59190;BME280;50749;51.636;4.948;2022-09-28T07:20:48;99734.69;;;17.96;60.30
59190;BME280;50749;51.636;4.948;2022-09-28T07:23:15;99727.19;;;17.97;60.46
59190;BME280;50749;51.636;4.948;2022-09-28T07:25:43;99733.16;;;17.99;61.12
59190;BME280;50749;51.636;4.948;2022-09-28T07:28:12;99731.94;;;18.00;60.51
59190;BME280;50749;51.636;4.948;2022-09-28T07:30:38;99740.66;;;18.02;60.65
59190;BME280;50749;51.636;4.948;2022-09-28T07:33:06;99739.13;;;18.08;60.60
59190;BME280;50749;51.636;4.948;2022-09-28T07:35:36;99741.91;;;18.15;60.96
59190;BME280;50749;51.636;4.948;2022-09-28T07:38:03;99750.28;;;18.23;60.66
59190;BME280;50749;51.636;4.948;2022-09-28T07:40:31;99743.56;;;18.27;60.40
59190;BME280;50749;51.636;4.948;2022-09-28T07:43:18;99745.56;;;18.34;60.44
59190;BME280;50749;51.636;4.948;2022-09-28T07:45:50;99747.97;;;18.39;60.38
59190;BME280;50749;51.636;4.948;2022-09-28T07:48:17;99747.22;;;18.42;60.15
59190;BME280;50749;51.636;4.948;2022-09-28T07:51:01;99752.75;;;18.46;60.22
59190;BME280;50749;51.636;4.948;2022-09-28T07:53:28;99755.13;;;18.47;60.01
59190;BME280;50749;51.636;4.948;2022-09-28T07:55:59;99755.19;;;18.51;60.16
59190;BME280;50749;51.636;4.948;2022-09-28T07:58:30;99759.91;;;18.54;59.90
59190;BME280;50749;51.636;4.948;2022-09-28T08:01:05;99755.59;;;18.56;60.01
59190;BME280;50749;51.636;4.948;2022-09-28T08:03:33;99750.44;;;18.59;59.85
59190;BME280;50749;51.636;4.948;2022-09-28T08:06:03;99758.38;;;18.60;60.37
59190;BME280;50749;51.636;4.948;2022-09-28T08:08:34;99764.31;;;18.62;60.17
59190;BME280;50749;51.636;4.948;2022-09-28T08:11:02;99762.75;;;18.65;59.90
59190;BME280;50749;51.636;4.948;2022-09-28T08:13:28;99765.53;;;18.68;59.99
59190;BME280;50749;51.636;4.948;2022-09-28T08:15:59;99769.47;;;18.71;60.38
59190;BME280;50749;51.636;4.948;2022-09-28T08:18:26;99760.00;;;18.75;60.36
59190;BME280;50749;51.636;4.948;2022-09-28T08:20:53;99756.47;;;18.79;60.31
59190;BME280;50749;51.636;4.948;2022-09-28T08:23:38;99767.56;;;18.82;60.49
59190;BME280;50749;51.636;4.948;2022-09-28T08:26:07;99768.41;;;18.86;60.05
59190;BME280;50749;51.636;4.948;2022-09-28T08:28:33;99768.03;;;18.91;60.39
59190;BME280;50749;51.636;4.948;2022-09-28T08:31:02;99768.81;;;18.96;60.34
59190;BME280;50749;51.636;4.948;2022-09-28T08:33:33;99773.19;;;19.00;60.01
59190;BME280;50749;51.636;4.948;2022-09-28T08:36:00;99772.03;;;19.05;60.12
59190;BME280;50749;51.636;4.948;2022-09-28T08:38:28;99786.66;;;19.09;59.99
59190;BME280;50749;51.636;4.948;2022-09-28T08:40:59;99778.34;;;19.12;59.88
59190;BME280;50749;51.636;4.948;2022-09-28T08:43:44;99776.81;;;19.15;59.89
59190;BME280;50749;51.636;4.948;2022-09-28T08:46:16;99782.75;;;19.21;60.07
59190;BME280;50749;51.636;4.948;2022-09-28T08:48:53;99786.28;;;19.21;59.87
59190;BME280;50749;51.636;4.948;2022-09-28T08:51:28;99786.72;;;19.23;59.69
59190;BME280;50749;51.636;4.948;2022-09-28T08:54:01;99786.34;;;19.28;59.77
59190;BME280;50749;51.636;4.948;2022-09-28T08:59:15;99791.88;;;19.36;59.79
59190;BME280;50749;51.636;4.948;2022-09-28T09:02:03;99787.13;;;19.33;60.13
59190;BME280;50749;51.636;4.948;2022-09-28T09:04:38;99800.97;;;19.33;59.60
59190;BME280;50749;51.636;4.948;2022-09-28T09:21:14;99799.81;;;19.37;59.78
59190;BME280;50749;51.636;4.948;2022-09-28T09:23:53;99796.63;;;19.35;59.94
59190;BME280;50749;51.636;4.948;2022-09-28T09:26:26;99807.72;;;19.35;60.02
59190;BME280;50749;51.636;4.948;2022-09-28T09:31:55;99808.91;;;19.38;60.36
59190;BME280;50749;51.636;4.948;2022-09-28T09:47:48;99817.59;;;19.40;59.98
59190;BME280;50749;51.636;4.948;2022-09-28T09:50:23;99822.75;;;19.41;60.04
59190;BME280;50749;51.636;4.948;2022-09-28T09:53:03;99820.00;;;19.41;60.42
59190;BME280;50749;51.636;4.948;2022-09-28T09:55:35;99812.50;;;19.45;60.55
59190;BME280;50749;51.636;4.948;2022-09-28T09:58:14;99824.34;;;19.46;60.13
59190;BME280;50749;51.636;4.948;2022-09-28T10:00:43;99821.97;;;19.48;60.04
59190;BME280;50749;51.636;4.948;2022-09-28T10:03:31;99818.81;;;19.49;60.08
59190;BME280;50749;51.636;4.948;2022-09-28T10:06:06;99814.06;;;19.50;60.26
59190;BME280;50749;51.636;4.948;2022-09-28T10:08:39;99820.41;;;19.51;59.82
59190;BME280;50749;51.636;4.948;2022-09-28T10:11:16;99825.19;;;19.57;56.89
59190;BME280;50749;51.636;4.948;2022-09-28T10:13:46;99828.34;;;19.59;58.07
59190;BME280;50749;51.636;4.948;2022-09-28T10:16:16;99823.19;;;19.54;58.82
59190;BME280;50749;51.636;4.948;2022-09-28T10:18:42;99823.59;;;19.49;58.99
59190;BME280;50749;51.636;4.948;2022-09-28T10:21:12;99828.34;;;19.52;59.60
59190;BME280;50749;51.636;4.948;2022-09-28T10:23:38;99822.78;;;19.48;59.44
59190;BME280;50749;51.636;4.948;2022-09-28T10:26:18;99819.25;;;19.55;59.30
59190;BME280;50749;51.636;4.948;2022-09-28T10:28:56;99827.94;;;19.57;59.27
59190;BME280;50749;51.636;4.948;2022-09-28T10:34:02;99829.13;;;19.63;59.14
59190;BME280;50749;51.636;4.948;2022-09-28T10:36:27;99820.41;;;19.61;59.10
59190;BME280;50749;51.636;4.948;2022-09-28T10:38:53;99825.19;;;19.64;59.51
59190;BME280;50749;51.636;4.948;2022-09-28T10:41:20;99824.78;;;19.59;59.39
59190;BME280;50749;51.636;4.948;2022-09-28T10:43:54;99826.75;;;19.55;59.63
59190;BME280;50749;51.636;4.948;2022-09-28T10:46:34;99824.38;;;19.53;59.52
59190;BME280;50749;51.636;4.948;2022-09-28T10:51:48;99816.88;;;19.54;60.09
59190;BME280;50749;51.636;4.948;2022-09-28T10:54:19;99822.41;;;19.57;59.48
59190;BME280;50749;51.636;4.948;2022-09-28T10:56:47;99822.41;;;19.54;58.05
59190;BME280;50749;51.636;4.948;2022-09-28T11:04:39;99822.75;;;19.41;57.15
59190;BME280;50749;51.636;4.948;2022-09-28T11:07:16;99820.41;;;19.43;56.91
59190;BME280;50749;51.636;4.948;2022-09-28T11:09:46;99825.97;;;19.43;57.08
59190;BME280;50749;51.636;4.948;2022-09-28T11:12:14;99826.75;;;19.44;56.98
59190;BME280;50749;51.636;4.948;2022-09-28T11:14:42;99823.59;;;19.49;56.86
59190;BME280;50749;51.636;4.948;2022-09-28T11:17:35;99832.28;;;19.44;56.83
59190;BME280;50749;51.636;4.948;2022-09-28T11:22:55;99818.81;;;19.49;56.87
59190;BME280;50749;51.636;4.948;2022-09-28T11:25:28;99827.53;;;19.48;56.75
59190;BME280;50749;51.636;4.948;2022-09-28T11:27:59;99822.78;;;19.48;57.54
59190;BME280;50749;51.636;4.948;2022-09-28T11:30:58;99823.56;;;19.42;57.37
59190;BME280;50749;51.636;4.948;2022-09-28T11:33:34;99814.84;;;19.40;57.37
59190;BME280;50749;51.636;4.948;2022-09-28T11:39:05;99815.59;;;19.29;57.60
59190;BME280;50749;51.636;4.948;2022-09-28T11:44:39;99818.78;;;19.31;57.79
59190;BME280;50749;51.636;4.948;2022-09-28T11:47:28;99810.88;;;19.37;57.71
59190;BME280;50749;51.636;4.948;2022-09-28T11:50:03;99816.44;;;19.37;57.67
59190;BME280;50749;51.636;4.948;2022-09-28T11:52:35;99818.41;;;19.40;57.38
59190;BME280;50749;51.636;4.948;2022-09-28T11:55:18;99820.81;;;19.42;57.27
59190;BME280;50749;51.636;4.948;2022-09-28T11:58:04;99814.44;;;19.45;57.38
59190;BME280;50749;51.636;4.948;2022-09-28T12:00:41;99817.22;;;19.45;57.17
59190;BME280;50749;51.636;4.948;2022-09-28T12:03:18;99821.97;;;19.41;57.17
59190;BME280;50749;51.636;4.948;2022-09-28T12:05:51;99818.00;;;19.35;57.41
59190;BME280;50749;51.636;4.948;2022-09-28T12:08:32;99823.56;;;19.42;57.33
59190;BME280;50749;51.636;4.948;2022-09-28T12:11:14;99827.91;;;19.46;56.95
59190;BME280;50749;51.636;4.948;2022-09-28T12:13:45;99826.75;;;19.47;56.95
59190;BME280;50749;51.636;4.948;2022-09-28T12:19:12;99833.06;;;19.48;56.93
59190;BME280;50749;51.636;4.948;2022-09-28T12:21:50;99837.84;;;19.47;56.86
59190;BME280;50749;51.636;4.948;2022-09-28T12:24:24;99833.47;;;19.46;56.61
59190;BME280;50749;51.636;4.948;2022-09-28T12:27:16;99825.16;;;19.46;57.14
59190;BME280;50749;51.636;4.948;2022-09-28T12:29:53;99828.31;;;19.45;56.68
59190;BME280;50749;51.636;4.948;2022-09-28T12:34:54;99827.53;;;19.44;56.91
59190;BME280;50749;51.636;4.948;2022-09-28T12:37:55;99824.34;;;19.46;56.74
59190;BME280;50749;51.636;4.948;2022-09-28T12:40:42;99830.28;;;19.44;56.93
59190;BME280;50749;51.636;4.948;2022-09-28T12:46:44;99833.06;;;19.48;56.87
59190;BME280;50749;51.636;4.948;2022-09-28T12:49:27;99826.75;;;19.51;57.11
59190;BME280;50749;51.636;4.948;2022-09-28T12:51:57;99835.47;;;19.53;55.63
59190;BME280;50749;51.636;4.948;2022-09-28T13:00:10;99821.19;;;19.44;53.82
59190;BME280;50749;51.636;4.948;2022-09-28T13:16:54;99831.44;;;19.22;54.72
59190;BME280;50749;51.636;4.948;2022-09-28T13:24:58;99849.63;;;19.19;55.60
59190;BME280;50749;51.636;4.948;2022-09-28T13:27:34;99857.13;;;19.15;56.01
59190;BME280;50749;51.636;4.948;2022-09-28T13:30:03;99863.47;;;19.16;56.15
59190;BME280;50749;51.636;4.948;2022-09-28T13:32:32;99863.06;;;19.10;55.32
59190;BME280;50749;51.636;4.948;2022-09-28T13:34:59;99856.69;;;19.02;52.99
59190;BME280;50749;51.636;4.948;2022-09-28T13:37:27;99864.56;;;18.93;52.32
59190;BME280;50749;51.636;4.948;2022-09-28T13:39:55;99866.91;;;18.87;51.64
59190;BME280;50749;51.636;4.948;2022-09-28T13:55:55;99848.72;;;18.86;54.46
59190;BME280;50749;51.636;4.948;2022-09-28T13:59:00;99850.28;;;18.87;54.37
59190;BME280;50749;51.636;4.948;2022-09-28T14:01:29;99855.84;;;18.91;54.17
59190;BME280;50749;51.636;4.948;2022-09-28T14:04:21;99849.91;;;18.92;54.20
59190;BME280;50749;51.636;4.948;2022-09-28T14:06:56;99849.91;;;18.92;54.74
59190;BME280;50749;51.636;4.948;2022-09-28T14:12:54;99851.47;;;18.86;54.33
59190;BME280;50749;51.636;4.948;2022-09-28T14:18:31;99859.00;;;18.89;54.39
59190;BME280;50749;51.636;4.948;2022-09-28T14:21:11;99862.19;;;18.91;54.63
59190;BME280;50749;51.636;4.948;2022-09-28T14:23:59;99848.34;;;18.91;54.70
59190;BME280;50749;51.636;4.948;2022-09-28T14:29:35;99851.09;;;18.91;54.73
59190;BME280;50749;51.636;4.948;2022-09-28T14:34:42;99855.84;;;18.94;54.85
59190;BME280;50749;51.636;4.948;2022-09-28T14:37:28;99857.03;;;18.90;54.81
59190;BME280;50749;51.636;4.948;2022-09-28T14:40:19;99853.00;;;18.80;55.66
59190;BME280;50749;51.636;4.948;2022-09-28T14:54:21;99866.06;;;18.80;55.59
59190;BME280;50749;51.636;4.948;2022-09-28T14:57:11;99871.19;;;18.81;55.82
59190;BME280;50749;51.636;4.948;2022-09-28T14:59:42;99872.78;;;18.82;56.24
59190;BME280;50749;51.636;4.948;2022-09-28T15:02:32;99866.84;;;18.80;56.09
59190;BME280;50749;51.636;4.948;2022-09-28T15:05:15;99879.50;;;18.81;56.23
59190;BME280;50749;51.636;4.948;2022-09-28T15:07:47;99882.66;;;18.80;55.90
59190;BME280;50749;51.636;4.948;2022-09-28T15:12:59;99886.59;;;18.75;56.54
59190;BME280;50749;51.636;4.948;2022-09-28T15:18:19;99881.81;;;18.72;55.98
59190;BME280;50749;51.636;4.948;2022-09-28T15:20:53;99883.78;;;18.71;56.54
59190;BME280;50749;51.636;4.948;2022-09-28T15:23:26;99884.97;;;18.74;56.57
59190;BME280;50749;51.636;4.948;2022-09-28T15:25:58;99884.97;;;18.74;56.29
59190;BME280;50749;51.636;4.948;2022-09-28T15:28:26;99886.59;;;18.75;56.53
59190;BME280;50749;51.636;4.948;2022-09-28T15:30:59;99890.53;;;18.78;56.43
59190;BME280;50749;51.636;4.948;2022-09-28T15:33:27;99889.75;;;18.77;56.36
59190;BME280;50749;51.636;4.948;2022-09-28T15:36:24;99885.81;;;18.74;56.22
59190;BME280;50749;51.636;4.948;2022-09-28T15:39:16;99886.56;;;18.68;54.06
59190;BME280;50749;51.636;4.948;2022-09-28T15:41:45;99887.66;;;18.56;52.66
59190;BME280;50749;51.636;4.948;2022-09-28T15:44:27;99894.69;;;18.43;52.15
59190;BME280;50749;51.636;4.948;2022-09-28T15:47:15;99898.94;;;18.33;52.05
59190;BME280;50749;51.636;4.948;2022-09-28T15:49:55;99892.59;;;18.32;54.24
59190;BME280;50749;51.636;4.948;2022-09-28T15:53:14;99889.44;;;18.34;54.96
59190;BME280;50749;51.636;4.948;2022-09-28T15:55:20;99899.75;;;18.37;55.74
59190;BME280;50749;51.636;4.948;2022-09-28T15:57:47;99894.31;;;18.44;55.86
59190;BME280;50749;51.636;4.948;2022-09-28T16:00:27;99898.25;;;18.47;56.26
59190;BME280;50749;51.636;4.948;2022-09-28T16:08:00;99903.06;;;18.53;55.86
59190;BME280;50749;51.636;4.948;2022-09-28T16:10:33;99905.41;;;18.51;56.28